createdAt,value
2018-02-03T00:00:51.261Z,4.22
2018-02-03T00:01:51.276Z,4.14
2018-02-03T00:02:51.291Z,4.22
2018-02-03T00:03:51.310Z,4.23
2018-02-03T00:04:51.321Z,4.10
2018-02-03T00:05:51.337Z,4.08
2018-02-03T00:06:51.352Z,4.10
2018-02-03T00:07:51.367Z,4.05
2018-02-03T00:08:51.383Z,4.01
2018-02-03T00:09:51.399Z,4.04
2018-02-03T00:10:51.413Z,4.01
2018-02-03T00:11:51.429Z,4.02
2018-02-03T00:12:51.445Z,4.08
2018-02-03T00:13:51.462Z,4.14
2018-02-03T00:14:51.474Z,4.02
2018-02-03T00:15:51.490Z,4.13
2018-02-03T00:16:51.506Z,4.31
2018-02-03T00:17:51.520Z,4.31
2018-02-03T00:18:51.536Z,4.20
2018-02-03T00:19:51.550Z,4.14
2018-02-03T00:20:51.567Z,4.16
2018-02-03T00:21:51.582Z,4.13
2018-02-03T00:22:51.597Z,4.14
2018-02-03T00:23:51.613Z,4.26
2018-02-03T00:24:51.628Z,4.22
2018-02-03T00:25:51.647Z,4.14
2018-02-03T00:26:51.660Z,4.17
2018-02-03T00:27:51.674Z,4.23
2018-02-03T00:28:51.690Z,4.19
2018-02-03T00:29:51.705Z,4.16
2018-02-03T00:30:51.720Z,4.19
2018-02-03T00:31:51.736Z,4.01
2018-02-03T00:32:51.756Z,4.05
2018-02-03T00:33:51.767Z,4.06
2018-02-03T00:34:51.782Z,4.08
2018-02-03T00:35:51.797Z,4.08
2018-02-03T00:36:51.812Z,4.14
2018-02-03T00:37:51.827Z,4.10
2018-02-03T00:38:51.842Z,4.06
2018-02-03T00:39:51.861Z,4.06
2018-02-03T00:40:51.874Z,4.01
2018-02-03T00:41:51.890Z,4.06
2018-02-03T00:42:51.904Z,4.02
2018-02-03T00:43:51.920Z,4.04
2018-02-03T00:44:51.936Z,4.02
2018-02-03T00:45:51.951Z,4.10
2018-02-03T00:46:51.966Z,4.04
2018-02-03T00:47:51.981Z,4.13
2018-02-03T00:48:51.996Z,4.02
2018-02-03T00:49:52.012Z,4.02
2018-02-03T00:50:52.027Z,4.16
2018-02-03T00:51:52.042Z,4.20
2018-02-03T00:52:52.106Z,4.12
2018-02-03T00:53:52.072Z,4.05
2018-02-03T00:54:52.088Z,4.05
2018-02-03T00:55:52.104Z,4.06
2018-02-03T00:56:52.119Z,4.02
2018-02-03T00:57:52.134Z,4.13
2018-02-03T00:58:52.250Z,4.05
2018-02-03T00:59:52.164Z,4.04
2018-02-03T01:00:52.180Z,3.99
2018-02-03T01:01:52.196Z,4.05
2018-02-03T01:02:52.211Z,4.05
2018-02-03T01:03:52.229Z,4.05
2018-02-03T01:04:52.243Z,4.04
2018-02-03T01:05:52.257Z,4.04
2018-02-03T01:06:52.272Z,4.13
2018-02-03T01:07:52.288Z,4.14
2018-02-03T01:08:52.303Z,4.01
2018-02-03T01:09:52.319Z,4.04
2018-02-03T01:10:52.334Z,4.05
2018-02-03T01:11:52.349Z,4.06
2018-02-03T01:12:52.364Z,4.05
2018-02-03T01:13:52.380Z,4.02
2018-02-03T01:14:52.394Z,4.02
2018-02-03T01:15:52.410Z,4.08
2018-02-03T01:16:52.426Z,4.05
2018-02-03T01:17:52.442Z,4.01
2018-02-03T01:18:52.456Z,4.01
2018-02-03T01:19:52.472Z,4.02
2018-02-03T01:20:52.488Z,4.01
2018-02-03T01:21:52.506Z,4.12
2018-02-03T01:22:52.521Z,4.01
2018-02-03T01:23:52.534Z,4.10
2018-02-03T01:24:52.548Z,3.98
2018-02-03T01:25:52.565Z,3.99
2018-02-03T01:26:52.578Z,3.95
2018-02-03T01:27:52.595Z,3.98
2018-02-03T01:28:52.610Z,3.95
2018-02-03T01:29:52.626Z,4.06
2018-02-03T01:30:52.640Z,3.99
2018-02-03T01:31:52.656Z,4.02
2018-02-03T01:32:52.671Z,4.08
2018-02-03T01:33:52.690Z,4.01
2018-02-03T01:34:52.702Z,3.98
2018-02-03T01:35:52.717Z,3.94
2018-02-03T01:36:52.737Z,3.99
2018-02-03T01:37:52.748Z,4.04
2018-02-03T01:38:52.763Z,3.94
2018-02-03T01:39:52.778Z,3.98
2018-02-03T01:40:52.794Z,3.87
2018-02-03T01:41:52.809Z,3.80
2018-02-03T01:42:52.823Z,3.88
2018-02-03T01:43:52.839Z,3.70
2018-02-03T01:44:52.854Z,3.81
2018-02-03T01:45:52.870Z,3.86
2018-02-03T01:46:52.884Z,3.99
2018-02-03T01:47:52.900Z,3.87
2018-02-03T01:48:52.915Z,3.96
2018-02-03T01:49:52.931Z,3.80
2018-02-03T01:50:52.946Z,3.88
2018-02-03T01:51:52.962Z,3.86
2018-02-03T01:52:52.976Z,3.86
2018-02-03T01:53:52.991Z,3.88
2018-02-03T01:54:53.006Z,3.84
2018-02-03T01:55:53.021Z,3.91
2018-02-03T01:56:53.036Z,3.80
2018-02-03T01:57:53.052Z,3.69
2018-02-03T01:58:53.066Z,3.78
2018-02-03T01:59:53.081Z,3.83
2018-02-03T02:00:53.096Z,3.84
2018-02-03T02:01:53.112Z,3.78
2018-02-03T02:02:53.127Z,3.77
2018-02-03T02:03:53.142Z,3.86
2018-02-03T02:04:53.157Z,3.73
2018-02-03T02:05:53.174Z,3.70
2018-02-03T02:06:53.187Z,3.68
2018-02-03T02:07:53.203Z,3.70
2018-02-03T02:08:53.218Z,3.68
2018-02-03T02:09:53.233Z,3.56
2018-02-03T02:10:53.247Z,3.56
2018-02-03T02:11:53.262Z,3.58
2018-02-03T02:12:53.278Z,3.53
2018-02-03T02:13:53.294Z,3.53
2018-02-03T02:14:53.308Z,3.58
2018-02-03T02:15:53.323Z,3.62
2018-02-03T02:16:53.338Z,3.66
2018-02-03T02:17:53.353Z,3.69
2018-02-03T02:18:53.368Z,3.60
2018-02-03T02:19:53.533Z,3.58
2018-02-03T02:20:53.398Z,3.56
2018-02-03T02:21:53.414Z,3.59
2018-02-03T02:22:53.429Z,3.58
2018-02-03T02:23:53.443Z,3.48
2018-02-03T02:24:53.468Z,3.55
2018-02-03T02:25:53.474Z,3.44
2018-02-03T02:26:53.488Z,3.44
2018-02-03T02:27:53.504Z,3.50
2018-02-03T02:28:53.518Z,3.34
2018-02-03T02:29:53.533Z,3.37
2018-02-03T02:30:53.548Z,3.31
2018-02-03T02:31:53.563Z,3.18
2018-02-03T02:32:53.578Z,3.32
2018-02-03T02:33:53.594Z,3.31
2018-02-03T02:34:53.607Z,3.34
2018-02-03T02:35:53.674Z,3.36
2018-02-03T02:36:53.640Z,3.34
2018-02-03T02:37:53.653Z,3.32
2018-02-03T02:38:53.667Z,3.36
2018-02-03T02:39:53.833Z,3.19
2018-02-03T02:40:53.699Z,3.36
2018-02-03T02:41:53.712Z,3.36
2018-02-03T02:42:53.726Z,3.31
2018-02-03T02:43:53.745Z,3.37
2018-02-03T02:44:53.757Z,3.37
2018-02-03T02:45:53.772Z,3.34
2018-02-03T02:46:53.787Z,3.41
2018-02-03T02:47:53.801Z,3.32
2018-02-03T02:48:53.818Z,3.29
2018-02-03T02:49:53.832Z,3.34
2018-02-03T02:50:53.846Z,3.41
2018-02-03T02:51:53.861Z,3.31
2018-02-03T02:52:53.876Z,3.32
2018-02-03T02:53:53.892Z,3.22
2018-02-03T02:54:53.906Z,3.25
2018-02-03T02:55:53.920Z,3.22
2018-02-03T02:56:53.936Z,3.18
2018-02-03T02:57:53.951Z,3.29
2018-02-03T02:58:53.965Z,3.32
2018-02-03T02:59:53.980Z,3.31
2018-02-03T03:00:53.995Z,3.31
2018-02-03T03:01:54.010Z,3.19
2018-02-03T03:02:54.028Z,3.34
2018-02-03T03:03:54.045Z,3.34
2018-02-03T03:04:54.055Z,3.36
2018-02-03T03:05:54.070Z,3.37
2018-02-03T03:06:54.085Z,3.32
2018-02-03T03:07:54.098Z,3.34
2018-02-03T03:08:54.114Z,3.29
2018-02-03T03:09:54.129Z,3.28
2018-02-03T03:10:54.144Z,3.31
2018-02-03T03:11:54.159Z,3.14
2018-02-03T03:12:54.174Z,3.32
2018-02-03T03:13:54.190Z,3.31
2018-02-03T03:14:54.204Z,3.21
2018-02-03T03:15:54.219Z,3.19
2018-02-03T03:16:54.234Z,3.19
2018-02-03T03:17:54.250Z,3.13
2018-02-03T03:18:54.264Z,3.13
2018-02-03T03:19:54.279Z,3.08
2018-02-03T03:20:54.294Z,3.21
2018-02-03T03:21:54.310Z,3.10
2018-02-03T03:22:54.323Z,3.21
2018-02-03T03:23:54.338Z,3.19
2018-02-03T03:24:54.354Z,3.13
2018-02-03T03:25:54.369Z,3.14
2018-02-03T03:26:54.384Z,3.14
2018-02-03T03:27:54.399Z,3.19
2018-02-03T03:28:54.416Z,3.08
2018-02-03T03:29:54.429Z,3.07
2018-02-03T03:30:54.444Z,3.16
2018-02-03T03:31:54.609Z,3.11
2018-02-03T03:32:54.475Z,3.13
2018-02-03T03:33:54.489Z,3.11
2018-02-03T03:34:54.504Z,3.11
2018-02-03T03:35:54.518Z,3.10
2018-02-03T03:36:54.534Z,3.11
2018-02-03T03:37:54.550Z,3.16
2018-02-03T03:38:54.567Z,3.23
2018-02-03T03:39:54.579Z,3.11
2018-02-03T03:40:54.594Z,3.11
2018-02-03T03:41:54.609Z,3.16
2018-02-03T03:42:54.623Z,3.14
2018-02-03T03:43:54.640Z,3.16
2018-02-03T03:44:54.656Z,3.18
2018-02-03T03:45:54.669Z,3.26
2018-02-03T03:46:54.684Z,3.19
2018-02-03T03:47:54.699Z,3.19
2018-02-03T03:48:54.767Z,3.21
2018-02-03T03:49:54.729Z,3.04
2018-02-03T03:50:54.743Z,3.14
2018-02-03T03:51:54.759Z,3.13
2018-02-03T03:52:54.777Z,3.13
2018-02-03T03:53:54.790Z,3.18
2018-02-03T03:54:54.804Z,3.19
2018-02-03T03:55:54.819Z,3.03
2018-02-03T03:56:54.834Z,3.05
2018-02-03T03:57:54.850Z,3.07
2018-02-03T03:58:54.863Z,3.08
2018-02-03T03:59:54.879Z,3.07
2018-02-03T04:00:54.897Z,3.13
2018-02-03T04:01:54.909Z,3.13
2018-02-03T04:02:54.924Z,3.14
2018-02-03T04:03:54.938Z,3.05
2018-02-03T04:04:54.954Z,3.16
2018-02-03T04:05:54.969Z,3.08
2018-02-03T04:06:54.983Z,3.08
2018-02-03T04:07:54.999Z,3.04
2018-02-03T04:08:55.014Z,3.18
2018-02-03T04:09:55.029Z,3.04
2018-02-03T04:10:55.043Z,2.98
2018-02-03T04:11:55.058Z,3.05
2018-02-03T04:12:55.073Z,3.05
2018-02-03T04:13:55.088Z,3.07
2018-02-03T04:14:55.102Z,3.11
2018-02-03T04:15:55.116Z,3.16
2018-02-03T04:16:55.133Z,3.14
2018-02-03T04:17:55.148Z,3.08
2018-02-03T04:18:55.165Z,3.10
2018-02-03T04:19:55.178Z,3.08
2018-02-03T04:20:55.192Z,3.16
2018-02-03T04:21:55.207Z,3.21
2018-02-03T04:22:55.221Z,3.10
2018-02-03T04:23:55.236Z,3.23
2018-02-03T04:24:55.251Z,3.14
2018-02-03T04:25:55.317Z,3.10
2018-02-03T04:26:55.281Z,3.13
2018-02-03T04:27:55.296Z,3.16
2018-02-03T04:28:55.311Z,3.07
2018-02-03T04:29:55.326Z,3.07
2018-02-03T04:30:55.343Z,3.10
2018-02-03T04:31:55.506Z,3.08
2018-02-03T04:32:55.371Z,3.18
2018-02-03T04:33:55.386Z,3.10
2018-02-03T04:34:55.400Z,3.11
2018-02-03T04:35:55.415Z,3.11
2018-02-03T04:36:55.429Z,3.13
2018-02-03T04:37:55.445Z,3.11
2018-02-03T04:38:55.459Z,3.14
2018-02-03T04:39:55.474Z,3.14
2018-02-03T04:40:55.491Z,3.10
2018-02-03T04:41:55.505Z,3.14
2018-02-03T04:42:55.518Z,3.11
2018-02-03T04:43:55.533Z,3.11
2018-02-03T04:44:55.549Z,3.04
2018-02-03T04:45:55.564Z,3.08
2018-02-03T04:46:55.584Z,2.98
2018-02-03T04:47:55.594Z,3.05
2018-02-03T04:48:55.609Z,3.11
2018-02-03T04:49:55.624Z,3.11
2018-02-03T04:50:55.637Z,3.21
2018-02-03T04:51:55.654Z,3.05
2018-02-03T04:52:55.669Z,3.10
2018-02-03T04:53:55.689Z,3.14
2018-02-03T04:54:55.699Z,3.04
2018-02-03T04:55:55.713Z,3.10
2018-02-03T04:56:55.729Z,3.04
2018-02-03T04:57:55.743Z,3.07
2018-02-03T04:58:55.758Z,3.11
2018-02-03T04:59:55.773Z,2.97
2018-02-03T05:00:55.788Z,3.07
2018-02-03T05:01:55.804Z,3.07
2018-02-03T05:02:55.818Z,3.04
2018-02-03T05:03:55.833Z,3.01
2018-02-03T05:04:55.848Z,3.04
2018-02-03T05:05:55.864Z,2.98
2018-02-03T05:06:55.881Z,3.00
2018-02-03T05:07:55.894Z,3.10
2018-02-03T05:08:55.909Z,3.05
2018-02-03T05:09:55.929Z,2.97
2018-02-03T05:10:55.938Z,3.03
2018-02-03T05:11:55.953Z,2.93
2018-02-03T05:12:55.969Z,3.03
2018-02-03T05:13:55.983Z,2.98
2018-02-03T05:14:55.998Z,2.97
2018-02-03T05:15:56.013Z,2.97
2018-02-03T05:16:56.032Z,3.00
2018-02-03T05:17:56.044Z,2.89
2018-02-03T05:18:56.058Z,2.97
2018-02-03T05:19:56.073Z,2.92
2018-02-03T05:20:56.089Z,3.03
2018-02-03T05:21:56.103Z,3.00
2018-02-03T05:22:56.118Z,3.01
2018-02-03T05:23:56.133Z,3.00
2018-02-03T05:24:56.148Z,2.93
2018-02-03T05:25:56.163Z,2.93
2018-02-03T05:26:56.178Z,2.97
2018-02-03T05:27:56.256Z,2.97
2018-02-03T05:28:56.208Z,2.93
2018-02-03T05:29:56.233Z,2.92
2018-02-03T05:30:56.238Z,2.93
2018-02-03T05:31:56.252Z,2.98
2018-02-03T05:32:56.268Z,2.93
2018-02-03T05:33:56.283Z,2.90
2018-02-03T05:34:56.297Z,2.93
2018-02-03T05:35:56.312Z,2.95
2018-02-03T05:36:56.328Z,2.93
2018-02-03T05:37:56.343Z,2.85
2018-02-03T05:38:56.357Z,2.87
2018-02-03T05:39:56.372Z,2.80
2018-02-03T05:40:56.388Z,2.93
2018-02-03T05:41:56.403Z,2.87
2018-02-03T05:42:56.417Z,2.97
2018-02-03T05:43:56.433Z,2.93
2018-02-03T05:44:56.448Z,2.92
2018-02-03T05:45:56.463Z,2.92
2018-02-03T05:46:56.477Z,2.87
2018-02-03T05:47:56.492Z,2.83
2018-02-03T05:48:56.507Z,2.87
2018-02-03T05:49:56.523Z,2.93
2018-02-03T05:50:56.537Z,2.87
2018-02-03T05:51:56.703Z,2.98
2018-02-03T05:52:56.568Z,2.97
2018-02-03T05:53:56.584Z,2.92
2018-02-03T05:54:56.597Z,2.80
2018-02-03T05:55:56.613Z,2.89
2018-02-03T05:56:56.628Z,2.80
2018-02-03T05:57:56.642Z,2.85
2018-02-03T05:58:56.658Z,2.82
2018-02-03T05:59:56.673Z,2.85
2018-02-03T06:00:56.688Z,2.86
2018-02-03T06:01:56.704Z,2.77
2018-02-03T06:02:56.718Z,2.82
2018-02-03T06:03:56.733Z,2.72
2018-02-03T06:04:56.800Z,2.77
2018-02-03T06:05:56.763Z,2.75
2018-02-03T06:06:56.833Z,2.82
2018-02-03T06:07:56.793Z,2.72
2018-02-03T06:08:56.959Z,2.72
2018-02-03T06:09:56.824Z,2.75
2018-02-03T06:10:56.838Z,2.75
2018-02-03T06:11:56.853Z,2.68
2018-02-03T06:12:56.867Z,2.74
2018-02-03T06:13:56.884Z,2.69
2018-02-03T06:14:56.900Z,2.69
2018-02-03T06:15:56.912Z,2.68
2018-02-03T06:16:56.927Z,2.65
2018-02-03T06:17:56.942Z,2.67
2018-02-03T06:18:56.956Z,2.69
2018-02-03T06:19:56.971Z,2.75
2018-02-03T06:20:56.987Z,2.72
2018-02-03T06:21:57.002Z,2.83
2018-02-03T06:22:57.017Z,2.74
2018-02-03T06:23:57.031Z,2.85
2018-02-03T06:24:57.046Z,2.75
2018-02-03T06:25:57.061Z,2.69
2018-02-03T06:26:57.075Z,2.67
2018-02-03T06:27:57.090Z,2.69
2018-02-03T06:28:57.105Z,2.68
2018-02-03T06:29:57.120Z,2.60
2018-02-03T06:30:57.134Z,2.62
2018-02-03T06:31:57.149Z,2.61
2018-02-03T06:32:57.164Z,2.67
2018-02-03T06:33:57.180Z,2.61
2018-02-03T06:34:57.194Z,2.64
2018-02-03T06:35:57.209Z,2.61
2018-02-03T06:36:57.224Z,2.62
2018-02-03T06:37:57.238Z,2.65
2018-02-03T06:38:57.253Z,2.65
2018-02-03T06:39:57.268Z,2.69
2018-02-03T06:40:57.282Z,2.65
2018-02-03T06:41:57.298Z,2.62
2018-02-03T06:42:57.312Z,2.65
2018-02-03T06:43:57.326Z,2.64
2018-02-03T06:44:57.347Z,2.72
2018-02-03T06:45:57.357Z,2.77
2018-02-03T06:46:57.371Z,2.71
2018-02-03T06:47:57.386Z,2.80
2018-02-03T06:48:57.401Z,2.74
2018-02-03T06:49:57.419Z,2.62
2018-02-03T06:50:57.430Z,2.62
2018-02-03T06:51:57.445Z,2.62
2018-02-03T06:52:57.460Z,2.67
2018-02-03T06:53:57.475Z,2.69
2018-02-03T06:54:57.489Z,2.82
2018-02-03T06:55:57.504Z,2.75
2018-02-03T06:56:57.519Z,2.82
2018-02-03T06:57:57.685Z,2.82
2018-02-03T06:58:57.548Z,2.85
2018-02-03T06:59:57.564Z,2.85
2018-02-03T07:00:57.579Z,2.95
2018-02-03T07:01:57.594Z,2.82
2018-02-03T07:02:57.608Z,2.83
2018-02-03T07:03:57.623Z,2.92
2018-02-03T07:04:57.639Z,2.93
2018-02-03T07:05:57.653Z,2.95
2018-02-03T07:06:57.668Z,2.92
2018-02-03T07:07:57.683Z,2.98
2018-02-03T07:08:57.698Z,3.04
2018-02-03T07:09:57.718Z,3.00
2018-02-03T07:10:57.728Z,2.97
2018-02-03T07:11:57.743Z,3.01
2018-02-03T07:12:57.758Z,3.00
2018-02-03T07:13:57.773Z,2.89
2018-02-03T07:14:57.788Z,2.93
2018-02-03T07:15:57.803Z,2.93
2018-02-03T07:16:57.819Z,3.03
2018-02-03T07:17:57.834Z,2.97
2018-02-03T07:18:57.849Z,3.01
2018-02-03T07:19:57.865Z,3.00
2018-02-03T07:20:57.879Z,3.01
2018-02-03T07:21:58.044Z,3.00
2018-02-03T07:22:57.908Z,3.00
2018-02-03T07:23:57.924Z,3.05
2018-02-03T07:24:57.939Z,2.98
2018-02-03T07:25:57.955Z,3.04
2018-02-03T07:26:57.967Z,2.93
2018-02-03T07:27:57.984Z,3.01
2018-02-03T07:28:57.999Z,2.93
2018-02-03T07:29:58.016Z,2.92
2018-02-03T07:30:58.030Z,3.08
2018-02-03T07:31:58.045Z,3.13
2018-02-03T07:32:58.061Z,3.14
2018-02-03T07:33:58.076Z,3.14
2018-02-03T07:34:58.191Z,3.10
2018-02-03T07:35:58.106Z,3.10
2018-02-03T07:36:58.122Z,3.18
2018-02-03T07:37:58.137Z,3.10
2018-02-03T07:38:58.150Z,3.05
2018-02-03T07:39:58.167Z,3.10
2018-02-03T07:40:58.182Z,3.10
2018-02-03T07:41:58.198Z,3.08
2018-02-03T07:42:58.212Z,3.18
2018-02-03T07:43:58.228Z,3.16
2018-02-03T07:44:58.243Z,3.07
2018-02-03T07:45:58.259Z,3.13
2018-02-03T07:46:58.273Z,3.19
2018-02-03T07:47:58.288Z,3.05
2018-02-03T07:48:58.304Z,3.13
2018-02-03T07:49:58.320Z,3.14
2018-02-03T07:50:58.333Z,3.08
2018-02-03T07:51:58.397Z,3.16
2018-02-03T07:52:58.365Z,3.07
2018-02-03T07:53:58.380Z,3.11
2018-02-03T07:54:58.395Z,3.16
2018-02-03T07:55:58.417Z,3.16
2018-02-03T07:56:58.430Z,3.21
2018-02-03T07:57:58.441Z,3.25
2018-02-03T07:58:58.456Z,3.22
2018-02-03T07:59:58.471Z,3.23
2018-02-03T08:00:58.489Z,3.18
2018-02-03T08:01:58.501Z,3.16
2018-02-03T08:02:58.539Z,3.25
2018-02-03T08:03:58.539Z,3.31
2018-02-03T08:04:58.548Z,3.36
2018-02-03T08:05:58.566Z,3.40
2018-02-03T08:06:58.579Z,3.32
2018-02-03T08:07:58.597Z,3.31
2018-02-03T08:08:58.610Z,3.29
2018-02-03T08:09:58.628Z,3.45
2018-02-03T08:10:58.639Z,3.47
2018-02-03T08:11:58.656Z,3.36
2018-02-03T08:12:58.671Z,3.44
2018-02-03T08:13:58.687Z,3.34
2018-02-03T08:14:58.703Z,3.44
2018-02-03T08:15:58.717Z,3.47
2018-02-03T08:16:58.733Z,3.47
2018-02-03T08:17:58.749Z,3.44
2018-02-03T08:18:58.769Z,3.44
2018-02-03T08:19:58.779Z,3.53
2018-02-03T08:20:58.794Z,3.50
2018-02-03T08:21:58.811Z,3.45
2018-02-03T08:22:58.825Z,3.59
2018-02-03T08:23:58.841Z,3.59
2018-02-03T08:24:58.857Z,3.51
2018-02-03T08:25:58.873Z,3.53
2018-02-03T08:26:58.887Z,3.55
2018-02-03T08:27:58.903Z,3.48
2018-02-03T08:28:58.926Z,3.41
2018-02-03T08:29:58.935Z,3.34
2018-02-03T08:30:58.950Z,3.32
2018-02-03T08:31:58.968Z,3.32
2018-02-03T08:32:58.981Z,3.26
2018-02-03T08:33:58.997Z,3.36
2018-02-03T08:34:59.012Z,3.44
2018-02-03T08:35:59.027Z,3.42
2018-02-03T08:36:59.043Z,3.41
2018-02-03T08:37:59.058Z,3.45
2018-02-03T08:38:59.073Z,3.48
2018-02-03T08:39:59.089Z,3.31
2018-02-03T08:40:59.105Z,3.40
2018-02-03T08:41:59.120Z,3.40
2018-02-03T08:42:59.136Z,3.37
2018-02-03T08:43:59.151Z,3.41
2018-02-03T08:44:59.167Z,3.40
2018-02-03T08:45:59.181Z,3.44
2018-02-03T08:46:59.199Z,3.41
2018-02-03T08:47:59.214Z,3.53
2018-02-03T08:48:59.230Z,3.60
2018-02-03T08:49:59.244Z,3.56
2018-02-03T08:50:59.258Z,3.56
2018-02-03T08:51:59.275Z,3.53
2018-02-03T08:52:59.291Z,3.48
2018-02-03T08:53:59.307Z,3.47
2018-02-03T08:54:59.322Z,3.53
2018-02-03T08:55:59.336Z,3.48
2018-02-03T08:56:59.354Z,3.31
2018-02-03T08:57:59.369Z,3.31
2018-02-03T08:58:59.384Z,3.22
2018-02-03T08:59:59.400Z,3.21
2018-02-03T09:00:59.416Z,3.19
2018-02-03T09:01:59.431Z,3.22
2018-02-03T09:02:59.446Z,3.22
2018-02-03T09:03:59.464Z,3.34
2018-02-03T09:04:59.478Z,3.32
2018-02-03T09:05:59.493Z,3.42
2018-02-03T09:06:59.508Z,3.31
2018-02-03T09:07:59.524Z,3.37
2018-02-03T09:08:59.540Z,3.45
2018-02-03T09:09:59.555Z,3.47
2018-02-03T09:10:59.570Z,3.51
2018-02-03T09:11:59.585Z,3.48
2018-02-03T09:12:59.602Z,3.58
2018-02-03T09:13:59.617Z,3.59
2018-02-03T09:14:59.631Z,3.74
2018-02-03T09:15:59.677Z,3.77
2018-02-03T09:16:59.663Z,3.77
2018-02-03T09:17:59.679Z,3.73
2018-02-03T09:18:59.700Z,3.63
2018-02-03T09:19:59.709Z,3.70
2018-02-03T09:20:59.725Z,3.86
2018-02-03T09:21:59.741Z,3.88
2018-02-03T09:22:59.756Z,3.91
2018-02-03T09:23:59.771Z,3.94
2018-02-03T09:24:59.788Z,4.01
2018-02-03T09:25:59.804Z,3.95
2018-02-03T09:26:59.818Z,3.91
2018-02-03T09:27:59.836Z,3.98
2018-02-03T09:28:59.853Z,4.01
2018-02-03T09:29:59.867Z,3.88
2018-02-03T09:30:59.882Z,3.95
2018-02-03T09:31:59.898Z,3.94
2018-02-03T09:32:59.914Z,3.80
2018-02-03T09:33:59.930Z,3.88
2018-02-03T09:34:59.947Z,3.96
2018-02-03T09:35:59.961Z,3.84
2018-02-03T09:36:59.976Z,3.96
2018-02-03T09:37:59.993Z,3.99
2018-02-03T09:39:00.009Z,3.95
2018-02-03T09:40:00.043Z,4.01
2018-02-03T09:41:00.041Z,3.95
2018-02-03T09:42:00.057Z,4.01
2018-02-03T09:43:00.073Z,3.99
2018-02-03T09:44:00.088Z,3.95
2018-02-03T09:45:00.104Z,3.95
2018-02-03T09:46:00.120Z,4.08
2018-02-03T09:47:00.136Z,4.02
2018-02-03T09:48:00.151Z,4.01
2018-02-03T09:49:00.172Z,4.02
2018-02-03T09:50:00.183Z,4.01
2018-02-03T09:51:00.199Z,4.04
2018-02-03T09:52:00.215Z,3.99
2018-02-03T09:53:00.231Z,3.87
2018-02-03T09:54:00.247Z,3.91
2018-02-03T09:55:00.261Z,3.94
2018-02-03T09:56:00.278Z,3.99
2018-02-03T09:57:00.294Z,4.08
2018-02-03T09:58:00.313Z,4.19
2018-02-03T09:59:00.325Z,4.35
2018-02-03T10:00:00.342Z,4.41
2018-02-03T10:01:00.357Z,4.34
2018-02-03T10:02:00.423Z,4.26
2018-02-03T10:03:00.389Z,4.34
2018-02-03T10:04:00.405Z,4.48
2018-02-03T10:05:00.421Z,4.52
2018-02-03T10:06:00.438Z,4.50
2018-02-03T10:07:00.452Z,4.66
2018-02-03T10:08:00.469Z,4.70
2018-02-03T10:09:00.486Z,4.60
2018-02-03T10:10:00.651Z,4.67
2018-02-03T10:11:00.517Z,4.55
2018-02-03T10:12:00.533Z,4.59
2018-02-03T10:13:00.550Z,4.53
2018-02-03T10:14:00.566Z,4.52
2018-02-03T10:15:00.582Z,4.55
2018-02-03T10:16:00.598Z,4.67
2018-02-03T10:17:00.615Z,4.67
2018-02-03T10:18:00.631Z,4.75
2018-02-03T10:19:00.647Z,4.75
2018-02-03T10:20:00.663Z,4.92
2018-02-03T10:21:00.679Z,5.00
2018-02-03T10:22:00.696Z,5.11
2018-02-03T10:23:00.711Z,5.11
2018-02-03T10:24:00.727Z,5.17
2018-02-03T10:25:00.744Z,5.20
2018-02-03T10:26:00.760Z,5.14
2018-02-03T10:27:00.776Z,4.86
2018-02-03T10:28:00.792Z,4.80
2018-02-03T10:29:00.809Z,4.82
2018-02-03T10:30:00.826Z,4.66
2018-02-03T10:31:00.841Z,4.80
2018-02-03T10:32:00.858Z,4.77
2018-02-03T10:33:00.875Z,4.70
2018-02-03T10:34:00.892Z,5.02
2018-02-03T10:35:00.907Z,4.99
2018-02-03T10:36:00.924Z,5.07
2018-02-03T10:37:00.940Z,5.04
2018-02-03T10:38:00.956Z,4.94
2018-02-03T10:39:00.977Z,5.00
2018-02-03T10:40:00.989Z,5.15
2018-02-03T10:41:01.006Z,5.38
2018-02-03T10:42:01.022Z,5.29
2018-02-03T10:43:01.038Z,5.14
2018-02-03T10:44:01.054Z,5.12
2018-02-03T10:45:01.071Z,5.25
2018-02-03T10:46:01.087Z,5.12
2018-02-03T10:47:01.103Z,5.11
2018-02-03T10:48:01.119Z,5.12
2018-02-03T10:49:01.140Z,4.97
2018-02-03T10:50:01.154Z,5.00
2018-02-03T10:51:01.170Z,5.04
2018-02-03T10:52:01.186Z,5.12
2018-02-03T10:53:01.203Z,5.14
2018-02-03T10:54:01.219Z,5.25
2018-02-03T10:55:01.235Z,5.30
2018-02-03T10:56:01.251Z,5.14
2018-02-03T10:57:01.268Z,5.12
2018-02-03T10:58:01.306Z,5.14
2018-02-03T10:59:01.301Z,5.26
2018-02-03T11:00:01.317Z,5.29
2018-02-03T11:01:01.336Z,5.38
2018-02-03T11:02:01.350Z,5.38
2018-02-03T11:03:01.366Z,5.38
2018-02-03T11:04:01.383Z,5.41
2018-02-03T11:05:01.398Z,5.38
2018-02-03T11:06:01.416Z,5.23
2018-02-03T11:07:01.448Z,5.32
2018-02-03T11:08:01.454Z,5.20
2018-02-03T11:09:01.465Z,5.18
2018-02-03T11:10:01.483Z,5.17
2018-02-03T11:11:01.498Z,5.30
2018-02-03T11:12:01.514Z,5.48
2018-02-03T11:13:01.534Z,5.47
2018-02-03T11:14:01.549Z,5.57
2018-02-03T11:15:01.565Z,5.59
2018-02-03T11:16:01.581Z,5.66
2018-02-03T11:17:01.597Z,5.61
2018-02-03T11:18:01.613Z,5.71
2018-02-03T11:19:01.629Z,5.65
2018-02-03T11:20:01.646Z,5.66
2018-02-03T11:21:01.663Z,5.69
2018-02-03T11:22:01.680Z,5.84
2018-02-03T11:23:01.696Z,5.79
2018-02-03T11:24:01.712Z,5.87
2018-02-03T11:25:01.730Z,5.94
2018-02-03T11:26:01.749Z,5.97
2018-02-03T11:27:01.763Z,5.99
2018-02-03T11:28:01.780Z,5.91
2018-02-03T11:29:01.800Z,6.02
2018-02-03T11:30:01.816Z,5.91
2018-02-03T11:31:01.831Z,5.98
2018-02-03T11:32:01.847Z,6.01
2018-02-03T11:33:01.864Z,5.91
2018-02-03T11:34:01.881Z,5.93
2018-02-03T11:35:01.901Z,5.99
2018-02-03T11:36:01.914Z,6.01
2018-02-03T11:37:01.931Z,5.93
2018-02-03T11:38:01.949Z,6.01
2018-02-03T11:39:01.964Z,6.09
2018-02-03T11:40:01.981Z,6.08
2018-02-03T11:41:01.998Z,5.90
2018-02-03T11:42:02.021Z,5.99
2018-02-03T11:43:02.040Z,6.12
2018-02-03T11:44:02.055Z,6.09
2018-02-03T11:45:02.095Z,6.17
2018-02-03T11:46:02.083Z,6.17
2018-02-03T11:47:02.099Z,6.24
2018-02-03T11:48:02.116Z,6.19
2018-02-03T11:49:02.133Z,6.14
2018-02-03T11:50:02.150Z,6.05
2018-02-03T11:51:02.168Z,6.08
2018-02-03T11:52:02.183Z,6.12
2018-02-03T11:53:02.204Z,6.09
2018-02-03T11:54:02.218Z,6.09
2018-02-03T11:55:02.233Z,5.97
2018-02-03T11:56:02.251Z,6.02
2018-02-03T11:57:02.268Z,6.08
2018-02-03T11:58:02.285Z,6.02
2018-02-03T11:59:02.301Z,6.07
2018-02-03T12:00:02.318Z,6.05
2018-02-03T12:01:02.336Z,6.19
2018-02-03T12:02:02.353Z,6.41
2018-02-03T12:03:02.369Z,6.44
2018-02-03T12:04:02.386Z,6.49
2018-02-03T12:05:02.404Z,6.39
2018-02-03T12:06:02.420Z,6.57
2018-02-03T12:07:02.438Z,6.62
2018-02-03T12:08:02.454Z,6.48
2018-02-03T12:09:02.471Z,6.26
2018-02-03T12:10:02.491Z,6.28
2018-02-03T12:11:02.505Z,6.39
2018-02-03T12:12:02.522Z,6.24
2018-02-03T12:13:02.539Z,6.31
2018-02-03T12:14:02.558Z,6.33
2018-02-03T12:15:02.573Z,6.39
2018-02-03T12:16:02.590Z,6.49
2018-02-03T12:17:02.608Z,6.60
2018-02-03T12:18:02.626Z,6.52
2018-02-03T12:19:02.641Z,6.42
2018-02-03T12:20:02.659Z,6.33
2018-02-03T12:21:02.676Z,6.35
2018-02-03T12:22:02.693Z,6.36
2018-02-03T12:23:02.710Z,6.27
2018-02-03T12:24:02.727Z,6.30
2018-02-03T12:25:02.745Z,6.30
2018-02-03T12:26:02.762Z,6.27
2018-02-03T12:27:02.778Z,6.24
2018-02-03T12:28:02.796Z,6.28
2018-02-03T12:29:02.813Z,6.17
2018-02-03T12:30:02.830Z,6.17
2018-02-03T12:31:02.846Z,6.28
2018-02-03T12:32:02.864Z,6.36
2018-02-03T12:33:02.882Z,6.20
2018-02-03T12:34:02.899Z,6.20
2018-02-03T12:35:02.915Z,6.28
2018-02-03T12:36:02.932Z,6.20
2018-02-03T12:37:02.949Z,6.26
2018-02-03T12:38:02.967Z,6.16
2018-02-03T12:39:02.983Z,6.26
2018-02-03T12:40:03.001Z,6.24
2018-02-03T12:41:03.018Z,6.27
2018-02-03T12:42:03.036Z,6.19
2018-02-03T12:43:03.052Z,6.27
2018-02-03T12:44:03.068Z,6.20
2018-02-03T12:45:03.087Z,6.22
2018-02-03T12:46:03.103Z,6.09
2018-02-03T12:47:03.120Z,6.22
2018-02-03T12:48:03.141Z,6.20
2018-02-03T12:49:03.154Z,6.09
2018-02-03T12:50:03.172Z,6.07
2018-02-03T12:51:03.188Z,5.99
2018-02-03T12:52:03.205Z,6.04
2018-02-03T12:53:03.222Z,6.02
2018-02-03T12:54:03.240Z,6.04
2018-02-03T12:55:03.256Z,6.09
2018-02-03T12:56:03.273Z,6.09
2018-02-03T12:57:03.289Z,5.94
2018-02-03T12:58:03.309Z,5.93
2018-02-03T12:59:03.323Z,6.08
2018-02-03T13:00:03.340Z,6.20
2018-02-03T13:01:03.357Z,6.19
2018-02-03T13:02:03.375Z,6.28
2018-02-03T13:03:03.390Z,6.28
2018-02-03T13:04:03.408Z,6.38
2018-02-03T13:05:03.424Z,6.36
2018-02-03T13:06:03.442Z,6.28
2018-02-03T13:07:03.456Z,6.27
2018-02-03T13:08:03.475Z,6.28
2018-02-03T13:09:03.509Z,6.31
2018-02-03T13:10:03.512Z,6.26
2018-02-03T13:11:03.525Z,6.36
2018-02-03T13:12:03.542Z,6.30
2018-02-03T13:13:03.560Z,6.24
2018-02-03T13:14:03.577Z,6.27
2018-02-03T13:15:03.593Z,6.20
2018-02-03T13:16:03.610Z,6.20
2018-02-03T13:17:03.628Z,6.26
2018-02-03T13:18:03.645Z,6.33
2018-02-03T13:19:03.661Z,6.30